createdAt,value
2022-10-13T00:01:13.154Z,5.00
2022-10-13T00:03:41.954Z,5.00
2022-10-13T00:10:38.829Z,4.63
2022-10-13T00:13:08.018Z,4.35
2022-10-13T00:15:43.863Z,4.43
2022-10-13T00:18:10.895Z,4.22
2022-10-13T00:20:42.761Z,4.35
2022-10-13T00:23:09.896Z,3.63
2022-10-13T00:25:42.238Z,3.88
2022-10-13T00:28:09.571Z,3.43
2022-10-13T00:30:37.596Z,4.25
2022-10-13T00:33:04.928Z,4.43
2022-10-13T00:35:32.163Z,4.25
2022-10-13T00:37:59.165Z,4.18
2022-10-13T00:40:30.213Z,4.00
2022-10-13T00:42:57.115Z,3.90
2022-10-13T00:45:29.681Z,4.28
2022-10-13T00:47:59.439Z,4.50
2022-10-13T00:50:33.785Z,4.43
2022-10-13T00:53:03.702Z,4.07
2022-10-13T00:55:34.354Z,4.00
2022-10-13T00:58:05.807Z,4.40
2022-10-13T01:00:35.051Z,3.90
2022-10-13T01:03:02.994Z,4.15
2022-10-13T01:05:31.185Z,4.23
2022-10-13T01:07:59.829Z,4.10
2022-10-13T01:10:32.964Z,4.32
2022-10-13T01:13:13.931Z,3.95
2022-10-13T01:15:50.450Z,4.20
2022-10-13T01:18:28.449Z,3.70
2022-10-13T01:21:24.917Z,4.03
2022-10-13T01:23:54.719Z,4.38
2022-10-13T01:26:59.646Z,4.20
2022-10-13T01:29:47.707Z,4.70
2022-10-13T01:32:27.430Z,3.90
2022-10-13T01:35:10.866Z,3.95
2022-10-13T01:37:46.900Z,4.38
2022-10-13T01:40:38.575Z,4.35
2022-10-13T01:43:14.724Z,4.00
2022-10-13T01:45:53.973Z,4.47
2022-10-13T01:48:21.917Z,4.40
2022-10-13T01:50:53.623Z,4.57
2022-10-13T01:53:21.366Z,4.50
2022-10-13T01:55:57.582Z,4.00
2022-10-13T01:58:27.811Z,4.07
2022-10-13T02:00:57.853Z,3.63
2022-10-13T02:03:40.978Z,4.05
2022-10-13T02:06:21.147Z,3.80
2022-10-13T02:09:08.950Z,3.63
2022-10-13T02:11:43.666Z,3.87
2022-10-13T02:14:24.884Z,4.30
2022-10-13T02:16:53.886Z,4.22
2022-10-13T02:19:21.851Z,3.83
2022-10-13T02:21:49.016Z,4.13
2022-10-13T02:24:16.395Z,3.87
2022-10-13T02:26:43.504Z,4.10
2022-10-13T02:29:14.259Z,4.50
2022-10-13T02:31:42.648Z,4.05
2022-10-13T02:34:10.355Z,4.68
2022-10-13T02:36:38.595Z,4.53
2022-10-13T02:39:08.179Z,4.13
2022-10-13T02:41:35.517Z,4.63
2022-10-13T02:44:02.450Z,4.20
2022-10-13T02:46:35.099Z,4.45
2022-10-13T02:49:02.021Z,4.77
2022-10-13T02:51:29.346Z,4.82
2022-10-13T02:53:56.418Z,4.80
2022-10-13T02:56:23.476Z,4.85
2022-10-13T02:58:50.407Z,4.93
2022-10-13T03:01:17.413Z,4.47
2022-10-13T03:03:44.329Z,4.60
2022-10-13T03:06:11.395Z,5.03
2022-10-13T03:08:38.637Z,4.80
2022-10-13T03:11:05.853Z,4.68
2022-10-13T03:13:33.692Z,5.00
2022-10-13T03:16:07.336Z,4.50
2022-10-13T03:18:34.720Z,5.07
2022-10-13T03:21:04.858Z,4.95
2022-10-13T03:23:34.396Z,5.13
2022-10-13T03:26:02.252Z,4.77
2022-10-13T03:28:29.308Z,4.72
2022-10-13T03:31:06.272Z,4.88
2022-10-13T03:33:33.552Z,4.68
2022-10-13T03:36:02.018Z,5.60
2022-10-13T03:38:31.198Z,5.03
2022-10-13T03:40:58.293Z,5.70
2022-10-13T03:43:27.514Z,4.80
2022-10-13T03:45:56.246Z,5.07
2022-10-13T03:48:23.661Z,5.03
2022-10-13T03:50:50.703Z,4.63
2022-10-13T03:53:17.730Z,4.68
2022-10-13T03:55:53.648Z,5.03
2022-10-13T03:58:21.606Z,5.38
2022-10-13T04:00:52.178Z,5.32
2022-10-13T04:03:19.283Z,4.77
2022-10-13T04:05:46.999Z,4.65
2022-10-13T04:08:15.320Z,4.70
2022-10-13T04:10:42.743Z,5.10
2022-10-13T04:13:09.747Z,5.30
2022-10-13T04:15:41.663Z,5.20
2022-10-13T04:18:08.904Z,4.97
2022-10-13T04:20:38.576Z,4.80
2022-10-13T04:23:06.485Z,5.00
2022-10-13T04:25:38.013Z,4.53
2022-10-13T04:28:07.067Z,4.40
2022-10-13T04:30:36.937Z,5.10
2022-10-13T04:33:04.064Z,4.55
2022-10-13T04:35:31.693Z,5.15
2022-10-13T04:37:58.748Z,4.68
2022-10-13T04:40:26.565Z,4.57
2022-10-13T04:42:53.658Z,5.10
2022-10-13T04:45:20.745Z,5.47
2022-10-13T04:47:50.452Z,5.43
2022-10-13T04:50:22.528Z,5.45
2022-10-13T04:52:59.599Z,5.73
2022-10-13T04:55:26.837Z,5.85
2022-10-13T04:57:53.993Z,6.65
2022-10-13T05:00:21.138Z,6.47
2022-10-13T05:02:48.249Z,6.53
2022-10-13T05:05:15.282Z,6.47
2022-10-13T05:07:42.398Z,6.50
2022-10-13T05:10:09.874Z,6.93
2022-10-13T05:12:38.255Z,6.78
2022-10-13T05:15:05.796Z,7.20
2022-10-13T05:17:35.248Z,7.60
2022-10-13T05:20:09.148Z,6.57
2022-10-13T05:22:36.283Z,7.30
2022-10-13T05:25:03.419Z,7.35
2022-10-13T05:27:30.582Z,6.68
2022-10-13T05:29:58.968Z,7.43
2022-10-13T05:32:26.013Z,7.32
2022-10-13T05:34:52.957Z,6.50
2022-10-13T05:37:22.618Z,6.20
2022-10-13T05:39:49.905Z,7.13
2022-10-13T05:42:16.998Z,5.70
2022-10-13T05:44:44.282Z,6.15
2022-10-13T05:47:12.463Z,6.70
2022-10-13T05:49:42.225Z,6.72
2022-10-13T05:52:12.310Z,6.70
2022-10-13T05:54:47.140Z,6.23
2022-10-13T05:57:24.487Z,5.85
2022-10-13T06:00:08.460Z,6.90
2022-10-13T06:02:48.402Z,6.18
2022-10-13T06:05:18.547Z,6.07
2022-10-13T06:07:48.118Z,6.10
2022-10-13T06:10:15.888Z,6.07
2022-10-13T06:12:42.967Z,5.88
2022-10-13T06:15:10.663Z,6.22
2022-10-13T06:17:38.846Z,5.85
2022-10-13T06:20:06.997Z,5.03
2022-10-13T06:22:35.373Z,5.53
2022-10-13T06:25:03.589Z,6.20
2022-10-13T06:27:31.473Z,9.05
2022-10-13T06:29:59.601Z,5.35
2022-10-13T06:32:26.751Z,6.50
2022-10-13T06:34:56.510Z,5.70
2022-10-13T06:37:27.174Z,5.82
2022-10-13T06:39:54.735Z,7.75
2022-10-13T06:42:22.075Z,6.25
2022-10-13T06:45:08.150Z,5.13
2022-10-13T06:47:35.224Z,5.35
2022-10-13T06:50:02.291Z,5.20
2022-10-13T06:52:31.974Z,5.25
2022-10-13T06:55:01.333Z,5.15
2022-10-13T06:57:30.372Z,4.93
2022-10-13T06:59:57.754Z,5.78
2022-10-13T07:02:24.759Z,5.10
2022-10-13T07:04:51.680Z,5.03
2022-10-13T07:07:18.555Z,5.35
2022-10-13T07:09:46.370Z,5.03
2022-10-13T07:12:14.440Z,5.28
2022-10-13T07:14:43.712Z,4.82
2022-10-13T07:17:11.591Z,5.60
2022-10-13T07:19:38.720Z,5.30
2022-10-13T07:22:05.706Z,4.97
2022-10-13T07:24:32.760Z,5.53
2022-10-13T07:27:03.918Z,5.65
2022-10-13T07:29:33.929Z,5.47
2022-10-13T07:32:01.002Z,6.03
2022-10-13T07:34:28.199Z,5.63
2022-10-13T07:36:55.098Z,5.22
2022-10-13T07:39:22.105Z,5.40
2022-10-13T07:41:51.195Z,4.90
2022-10-13T07:44:18.929Z,5.53
2022-10-13T07:46:45.926Z,5.00
2022-10-13T07:49:16.049Z,5.53
2022-10-13T07:51:44.532Z,5.45
2022-10-13T07:54:11.548Z,5.20
2022-10-13T07:56:39.617Z,4.75
2022-10-13T07:59:07.693Z,5.60
2022-10-13T08:01:34.884Z,5.65
2022-10-13T08:04:02.100Z,6.57
2022-10-13T08:06:29.313Z,6.55
2022-10-13T08:09:00.698Z,8.38
2022-10-13T08:11:28.032Z,7.47
2022-10-13T08:13:56.075Z,8.48
2022-10-13T08:16:23.365Z,9.68
2022-10-13T08:18:50.683Z,6.40
2022-10-13T08:24:09.133Z,6.87
2022-10-13T08:26:36.213Z,8.98
2022-10-13T08:29:20.908Z,7.38
2022-10-13T08:34:24.843Z,5.45
2022-10-13T08:36:54.604Z,5.70
2022-10-13T08:39:23.194Z,5.53
2022-10-13T08:41:51.168Z,5.70
2022-10-13T08:47:50.604Z,5.05
2022-10-13T08:50:24.250Z,5.07
2022-10-13T08:52:59.934Z,4.85
2022-10-13T08:55:49.752Z,4.93
2022-10-13T08:58:27.148Z,4.45
2022-10-13T09:01:31.068Z,4.43
2022-10-13T09:04:08.401Z,4.70
2022-10-13T09:06:41.349Z,4.30
2022-10-13T09:09:15.772Z,4.55
2022-10-13T09:11:49.659Z,4.78
2022-10-13T09:14:36.847Z,4.55
2022-10-13T09:17:20.353Z,4.30
2022-10-13T09:19:59.869Z,4.80
2022-10-13T09:22:30.123Z,5.30
2022-10-13T09:25:15.500Z,4.32
2022-10-13T09:27:46.904Z,4.72
2022-10-13T09:30:38.714Z,4.50
2022-10-13T09:33:09.129Z,4.93
2022-10-13T09:35:48.142Z,4.38
2022-10-13T09:38:25.246Z,4.00
2022-10-13T09:41:09.776Z,3.83
2022-10-13T09:43:48.401Z,4.57
2022-10-13T09:46:29.964Z,4.22
2022-10-13T09:49:02.060Z,4.47
2022-10-13T09:51:45.110Z,4.03
2022-10-13T09:54:26.393Z,3.90
2022-10-13T09:57:16.041Z,3.90
2022-10-13T09:59:50.698Z,4.20
2022-10-13T10:02:31.163Z,4.18
2022-10-13T10:05:05.735Z,4.10
2022-10-13T10:07:33.719Z,4.25
2022-10-13T10:10:10.530Z,4.60
2022-10-13T10:12:42.147Z,4.25
2022-10-13T10:15:26.267Z,6.20
2022-10-13T10:18:03.082Z,3.90
2022-10-13T10:20:50.346Z,4.72
2022-10-13T10:23:35.565Z,4.10
2022-10-13T10:26:32.798Z,4.72
2022-10-13T10:29:29.525Z,5.38
2022-10-13T10:32:15.054Z,4.30
2022-10-13T10:35:00.039Z,5.50
2022-10-13T10:37:57.966Z,4.50
2022-10-13T10:40:49.713Z,5.10
2022-10-13T10:43:31.883Z,4.45
2022-10-13T10:46:00.555Z,3.88
2022-10-13T10:48:39.150Z,4.55
2022-10-13T10:51:08.049Z,4.27
2022-10-13T10:54:20.193Z,4.32
2022-10-13T10:57:01.909Z,4.63
2022-10-13T10:59:54.412Z,4.30
2022-10-13T11:02:30.405Z,5.00
2022-10-13T11:05:05.219Z,4.70
2022-10-13T11:07:34.677Z,4.03
2022-10-13T11:10:14.271Z,4.07
2022-10-13T11:13:01.466Z,4.07
2022-10-13T11:15:46.245Z,4.00
2022-10-13T11:18:51.883Z,4.17
2022-10-13T11:21:19.352Z,3.85
2022-10-13T11:23:49.459Z,4.38
2022-10-13T11:26:43.655Z,4.22
2022-10-13T11:29:58.030Z,4.60
2022-10-13T11:32:27.796Z,3.70
2022-10-13T11:35:03.438Z,4.50
2022-10-13T11:38:06.820Z,4.25
2022-10-13T11:40:59.723Z,4.25
2022-10-13T11:43:38.662Z,4.28
2022-10-13T11:46:21.842Z,4.10
2022-10-13T11:49:24.155Z,3.63
2022-10-13T11:52:12.968Z,4.40
2022-10-13T11:54:46.432Z,4.60
2022-10-13T11:57:22.088Z,4.43
2022-10-13T11:59:55.065Z,4.67
2022-10-13T12:02:27.871Z,4.72
2022-10-13T12:05:27.237Z,4.43
2022-10-13T12:07:57.401Z,4.40
2022-10-13T12:10:35.103Z,3.97
2022-10-13T12:13:05.431Z,4.00
2022-10-13T12:15:37.814Z,5.22
2022-10-13T12:18:25.069Z,4.47
2022-10-13T12:20:58.263Z,4.55
2022-10-13T12:23:29.878Z,3.78
2022-10-13T12:25:58.526Z,3.77
2022-10-13T12:28:46.093Z,3.38
2022-10-13T12:31:23.089Z,3.30
2022-10-13T12:33:57.695Z,3.60
2022-10-13T12:36:34.418Z,3.90
2022-10-13T12:39:05.189Z,3.63
2022-10-13T12:41:35.534Z,3.75
2022-10-13T12:44:06.620Z,3.33
2022-10-13T12:46:38.379Z,3.25
2022-10-13T12:49:26.618Z,3.33
2022-10-13T12:52:23.772Z,3.10
2022-10-13T12:54:54.336Z,3.20
2022-10-13T12:57:21.291Z,3.50
2022-10-13T12:59:48.554Z,3.20
2022-10-13T13:02:33.901Z,3.63
2022-10-13T13:05:00.907Z,3.20
2022-10-13T13:07:37.113Z,2.80
2022-10-13T13:10:20.317Z,2.70
2022-10-13T13:12:50.106Z,2.63
2022-10-13T13:15:28.617Z,3.35
2022-10-13T13:18:26.680Z,2.40
2022-10-13T13:20:54.663Z,2.88
2022-10-13T13:23:23.475Z,2.40
2022-10-13T13:26:05.892Z,2.65
2022-10-13T13:28:33.463Z,2.47
2022-10-13T13:31:04.168Z,2.60
2022-10-13T13:33:31.170Z,2.80
2022-10-13T13:35:59.352Z,2.70
2022-10-13T13:38:26.370Z,2.50
2022-10-13T13:40:53.317Z,2.20
2022-10-13T13:43:21.075Z,2.50
2022-10-13T13:45:48.102Z,2.20
2022-10-13T13:48:15.175Z,2.38
2022-10-13T13:50:42.192Z,2.53
2022-10-13T13:53:10.018Z,2.70
2022-10-13T13:55:38.078Z,2.33
2022-10-13T13:58:05.637Z,2.30
2022-10-13T14:00:37.541Z,2.60
2022-10-13T14:03:07.495Z,2.50
2022-10-13T14:05:38.455Z,2.38
2022-10-13T14:08:05.645Z,2.60
2022-10-13T14:10:32.559Z,2.50
2022-10-13T14:13:00.467Z,2.97
2022-10-13T14:15:30.146Z,2.78
2022-10-13T14:18:00.590Z,3.38
2022-10-13T14:20:27.776Z,3.10
2022-10-13T14:22:54.860Z,3.25
2022-10-13T14:25:22.139Z,3.78
2022-10-13T14:27:49.559Z,3.75
2022-10-13T14:30:16.620Z,3.30
2022-10-13T14:32:43.959Z,3.67
2022-10-13T14:35:10.912Z,6.30
2022-10-13T14:37:38.193Z,8.40
2022-10-13T14:40:06.002Z,4.30
2022-10-13T14:42:33.045Z,3.92
2022-10-13T14:45:00.261Z,3.63
2022-10-13T14:47:28.078Z,3.80
2022-10-13T14:49:56.478Z,4.38
2022-10-13T14:52:23.492Z,4.00
2022-10-13T14:54:50.531Z,3.90
2022-10-13T14:57:17.672Z,3.57
2022-10-13T14:59:46.639Z,3.83
2022-10-13T15:02:22.738Z,3.70
2022-10-13T15:04:53.860Z,4.65
2022-10-13T15:07:23.909Z,3.70
2022-10-13T15:10:04.379Z,3.93
2022-10-13T15:12:32.953Z,3.50
2022-10-13T15:15:03.291Z,3.67
2022-10-13T15:17:31.772Z,3.78
2022-10-13T15:20:03.478Z,3.25
2022-10-13T15:23:06.660Z,3.30
2022-10-13T15:26:20.506Z,3.25
2022-10-13T15:28:49.894Z,3.50
2022-10-13T15:31:19.043Z,3.50
2022-10-13T15:33:48.511Z,3.30
2022-10-13T15:36:16.656Z,3.33
2022-10-13T15:38:43.625Z,2.88
2022-10-13T15:41:12.512Z,3.35
2022-10-13T15:43:39.587Z,2.75
2022-10-13T15:46:10.901Z,3.00
2022-10-13T15:48:39.271Z,3.00
2022-10-13T15:51:13.747Z,2.80
2022-10-13T15:53:40.829Z,2.75
2022-10-13T15:56:08.752Z,2.58
2022-10-13T15:58:36.329Z,3.20
2022-10-13T16:01:12.004Z,2.83
2022-10-13T16:03:43.132Z,2.80
2022-10-13T16:06:13.830Z,3.15
2022-10-13T16:08:44.768Z,3.30
2022-10-13T16:11:16.847Z,3.00
2022-10-13T16:13:49.862Z,2.90
2022-10-13T16:16:21.208Z,3.15
2022-10-13T16:18:48.998Z,3.50
2022-10-13T16:21:19.748Z,4.40
2022-10-13T16:23:48.792Z,3.28
2022-10-13T16:26:17.766Z,3.50
2022-10-13T16:28:47.086Z,6.22
2022-10-13T16:31:43.840Z,6.15
2022-10-13T16:34:11.478Z,4.90
2022-10-13T16:36:38.777Z,4.00
2022-10-13T16:39:06.859Z,3.70
2022-10-13T16:41:41.325Z,3.70
2022-10-13T16:44:13.616Z,4.03
2022-10-13T16:46:58.789Z,5.47
2022-10-13T16:49:30.744Z,5.15
2022-10-13T16:51:58.214Z,3.60
2022-10-13T16:54:26.988Z,4.00
2022-10-13T16:56:54.301Z,6.90
2022-10-13T16:59:21.519Z,4.57
2022-10-13T17:01:49.026Z,6.90
2022-10-13T17:04:21.889Z,7.13
2022-10-13T17:06:49.618Z,15.48
2022-10-13T17:09:25.446Z,7.05
2022-10-13T17:11:52.934Z,4.70
2022-10-13T17:14:20.777Z,4.43
2022-10-13T17:16:58.453Z,3.70
2022-10-13T17:19:32.975Z,4.90
2022-10-13T17:22:03.866Z,10.32
2022-10-13T17:24:31.469Z,6.32
2022-10-13T17:26:59.094Z,4.60
2022-10-13T17:29:26.777Z,4.60
2022-10-13T17:31:56.108Z,4.43
2022-10-13T17:34:26.247Z,8.65
2022-10-13T17:36:54.092Z,4.70
2022-10-13T17:39:21.499Z,4.60
2022-10-13T17:41:49.248Z,4.17
2022-10-13T17:44:20.866Z,4.32
2022-10-13T17:46:51.285Z,4.90
2022-10-13T17:49:18.682Z,6.50
2022-10-13T17:51:46.689Z,5.20
2022-10-13T17:54:16.380Z,4.50
2022-10-13T17:56:48.103Z,4.32
2022-10-13T17:59:18.826Z,4.15
2022-10-13T18:01:46.724Z,4.22
2022-10-13T18:04:18.920Z,4.82
2022-10-13T18:06:46.630Z,4.77
2022-10-13T18:09:16.679Z,7.82
2022-10-13T18:11:50.320Z,6.20
2022-10-13T18:14:20.635Z,7.70
2022-10-13T18:16:52.126Z,5.55
2022-10-13T18:19:21.737Z,6.33
2022-10-13T18:21:53.136Z,9.70
2022-10-13T18:24:20.586Z,7.93
2022-10-13T18:26:49.890Z,4.78
2022-10-13T18:29:16.964Z,6.13
2022-10-13T18:31:44.153Z,5.63
2022-10-13T18:34:17.286Z,5.40
2022-10-13T18:36:47.495Z,4.97
2022-10-13T18:39:22.959Z,15.23
2022-10-13T18:41:51.240Z,7.15
2022-10-13T18:44:20.636Z,5.70
2022-10-13T18:46:59.172Z,5.38
2022-10-13T18:49:40.781Z,5.18
2022-10-13T18:52:08.075Z,4.93
2022-10-13T18:54:59.094Z,4.70
2022-10-13T18:57:48.764Z,4.67
2022-10-13T19:00:31.721Z,4.50
2022-10-13T19:03:02.215Z,4.93
2022-10-13T19:05:33.017Z,4.90
2022-10-13T19:10:56.227Z,6.30
2022-10-13T19:13:23.537Z,5.53
2022-10-13T19:15:50.518Z,5.40
2022-10-13T19:18:37.280Z,5.68
2022-10-13T19:21:05.214Z,7.95
2022-10-13T19:24:24.204Z,5.40
2022-10-13T19:26:51.480Z,5.50
2022-10-13T19:29:18.772Z,6.25
2022-10-13T19:31:46.034Z,5.85
2022-10-13T19:34:13.818Z,6.07
2022-10-13T19:36:44.242Z,5.37
2022-10-13T19:39:20.451Z,6.30
2022-10-13T19:41:48.843Z,6.13
2022-10-13T19:44:17.594Z,6.40
2022-10-13T19:46:47.211Z,6.60
2022-10-13T19:49:25.288Z,8.73
2022-10-13T19:51:57.642Z,6.45
2022-10-13T19:54:24.812Z,6.13
2022-10-13T19:56:54.315Z,6.05
2022-10-13T19:59:21.520Z,6.10
2022-10-13T20:01:53.446Z,6.83
2022-10-13T20:04:23.586Z,5.93
2022-10-13T20:07:10.899Z,6.82
2022-10-13T20:09:37.912Z,5.78
2022-10-13T20:12:05.591Z,5.93
2022-10-13T20:14:36.641Z,5.60
2022-10-13T20:17:03.785Z,6.35
2022-10-13T20:19:31.039Z,5.50
2022-10-13T20:22:02.210Z,5.80
2022-10-13T20:24:29.513Z,5.78
2022-10-13T20:26:59.250Z,7.97
2022-10-13T20:29:36.856Z,6.03
2022-10-13T20:32:06.098Z,6.20
2022-10-13T20:34:33.470Z,6.07
2022-10-13T20:37:00.407Z,6.13
2022-10-13T20:39:29.338Z,6.10
2022-10-13T20:41:56.275Z,6.65
2022-10-13T20:44:23.651Z,6.15
2022-10-13T20:46:50.805Z,7.22
2022-10-13T20:49:20.608Z,7.20
2022-10-13T20:51:47.548Z,6.37
2022-10-13T20:54:16.115Z,6.82
2022-10-13T20:56:43.609Z,6.15
2022-10-13T20:59:14.681Z,6.65
2022-10-13T21:01:42.360Z,6.10
2022-10-13T21:04:09.671Z,6.37
2022-10-13T21:06:38.152Z,5.30
2022-10-13T21:09:06.922Z,5.50
2022-10-13T21:11:35.260Z,5.93
2022-10-13T21:14:07.760Z,5.90
2022-10-13T21:16:35.961Z,5.43
2022-10-13T21:19:08.469Z,5.60
2022-10-13T21:21:38.099Z,5.40
2022-10-13T21:24:07.463Z,5.35
2022-10-13T21:26:41.973Z,6.22
2022-10-13T21:29:13.912Z,5.13
2022-10-13T21:31:41.021Z,6.45
2022-10-13T21:34:07.986Z,5.60
2022-10-13T21:36:35.215Z,5.63
2022-10-13T21:39:05.887Z,5.70
2022-10-13T21:41:33.249Z,6.20
2022-10-13T21:44:00.343Z,6.20
2022-10-13T21:46:33.012Z,6.07
2022-10-13T21:49:02.322Z,6.57
2022-10-13T21:51:35.549Z,6.03
2022-10-13T21:54:07.990Z,5.47
2022-10-13T21:56:35.900Z,5.75
2022-10-13T21:59:04.859Z,5.95
2022-10-13T22:01:32.133Z,5.90
2022-10-13T22:04:01.488Z,6.40
2022-10-13T22:06:30.691Z,6.10
2022-10-13T22:09:01.126Z,6.50
2022-10-13T22:11:31.164Z,6.50
2022-10-13T22:14:01.672Z,6.50
2022-10-13T22:16:42.546Z,6.68
2022-10-13T22:19:10.848Z,6.40
2022-10-13T22:21:45.068Z,6.55
2022-10-13T22:24:16.470Z,6.90
2022-10-13T22:26:44.922Z,6.47
2022-10-13T22:29:14.571Z,6.60
2022-10-13T22:31:43.434Z,6.80
2022-10-13T22:34:14.190Z,6.95
2022-10-13T22:36:44.741Z,7.43
2022-10-13T22:39:12.927Z,7.15
2022-10-13T22:41:40.152Z,6.63
2022-10-13T22:44:07.521Z,6.73
2022-10-13T22:46:36.952Z,6.63
2022-10-13T22:49:05.073Z,6.40
2022-10-13T22:51:34.428Z,6.88
2022-10-13T22:54:02.247Z,6.85
2022-10-13T22:56:32.084Z,6.33
2022-10-13T22:59:02.195Z,7.03
2022-10-13T23:01:29.530Z,7.22
2022-10-13T23:03:58.678Z,7.25
2022-10-13T23:06:32.104Z,7.53
2022-10-13T23:09:17.540Z,6.80
2022-10-13T23:11:45.252Z,7.05
2022-10-13T23:14:21.414Z,7.60
2022-10-13T23:16:48.995Z,7.22
2022-10-13T23:19:16.861Z,7.57
2022-10-13T23:21:44.213Z,8.13
2022-10-13T23:24:12.049Z,7.20
2022-10-13T23:26:39.131Z,7.60
2022-10-13T23:29:06.330Z,8.43
2022-10-13T23:31:33.435Z,8.40
2022-10-13T23:34:00.489Z,7.73
2022-10-13T23:36:29.850Z,8.10
2022-10-13T23:39:01.413Z,8.00
2022-10-13T23:41:29.274Z,7.97
2022-10-13T23:43:56.961Z,8.50
2022-10-13T23:46:24.949Z,8.47
2022-10-13T23:48:52.861Z,8.65
2022-10-13T23:51:23.213Z,8.60
2022-10-13T23:53:51.107Z,8.32
2022-10-13T23:56:19.000Z,8.57
2022-10-13T23:58:46.787Z,8.40
